Alpine, TX

2:00 PM CDT on June 26, 2017 (GMT -0500)
Alpine

Weather History for KE38 - January, 2014

Change the Weather History Date:

Wednesday, January 1, 2014

  Actual Average (KMRF) Record (KMRF)
Temperature  
Mean Temperature 51 °F -  
Max Temperature 67 °F 56 °F 71 °F (2000)
Min Temperature 35 °F 25 °F 15 °F (2008)
Degree Days  
Heating Degree Days 14    
Growing Degree Days 1 (Base 50)    
Moisture  
Dew Point 26 °F    
Average Humidity 42    
Maximum Humidity 62    
Minimum Humidity 17    
Precipitation  
Precipitation 0.00 in - - ()
Sea Level Pressure  
Sea Level Pressure 30.17 in    
Wind  
Wind Speed 12 mph (SW)    
Max Wind Speed 25 mph    
Max Gust Speed 31 mph    
Visibility 10 miles    
Events      
Averages and records for this station are not official NWS values.
T = Trace of Precipitation, MM = Missing Value Source: NWS Daily Summary

Daily Weather History Graph

Daily Weather History Graph

Search for Another Location

Airport or City:

Trip Planner

Search our weather history database for the weather conditions in past years. The results will help you decide how hot, cold, wet, or windy it might be!

Date:

Astronomy

Jan. 01, 2014 Rise Set
Actual Time 7:51 AM CST 6:05 PM CST
Civil Twilight 7:25 AM CST 6:31 PM CST
Nautical Twilight 6:55 AM CST 7:01 PM CST
Astronomical Twilight 6:25 AM CST 7:30 PM CST
Moon 7:48 AM CST (1/1) 6:47 PM CST (1/1)
Length of Visible Light 11h 06m
Length of Day
10h 13m
New Moon, 0% of the Moon is Illuminated
Jan 1
New Moon
Jan 7
First Quarter
Jan 15
Full
Jan 23
Last Quarter
Jan 30
New

Hourly Weather History & Observations

Time (CST) Temp. Windchill Dew Point Humidity Pressure Visibility Wind Dir Wind Speed Gust Speed Precip Events Conditions
12:15 AM 42.1 °F 35.7 °F 26.6 °F 54% 30.23 in 10.0 mi WSW 11.5 mph - N/A   Clear
12:35 AM 41.7 °F 36.7 °F 26.4 °F 55% 30.22 in 10.0 mi WSW 8.1 mph - N/A   Clear
12:55 AM 39.0 °F 33.4 °F 26.4 °F 61% 30.21 in 10.0 mi SW 8.1 mph - N/A   Clear
1:15 AM 41.5 °F 35.9 °F 26.4 °F 55% 30.21 in 10.0 mi SW 9.2 mph - N/A   Clear
1:35 AM 40.6 °F 34.8 °F 26.6 °F 57% 30.20 in 10.0 mi SW 9.2 mph - N/A   Clear
1:55 AM 39.9 °F 34.5 °F 26.4 °F 59% 30.19 in 10.0 mi SW 8.1 mph - N/A   Clear
2:15 AM 40.8 °F 35.6 °F 26.6 °F 57% 30.19 in 10.0 mi SW 8.1 mph - N/A   Clear
2:35 AM 42.4 °F 37.0 °F 26.6 °F 54% 30.19 in 10.0 mi SW 9.2 mph - N/A   Clear
2:55 AM 40.5 °F 37.3 °F 26.4 °F 57% 30.19 in 10.0 mi SW 4.6 mph - N/A   Clear
3:15 AM 40.8 °F 35.0 °F 26.6 °F 57% 30.18 in 10.0 mi WSW 9.2 mph - N/A   Clear
3:35 AM 41.7 °F 35.6 °F 27.0 °F 56% 30.18 in 10.0 mi WSW 10.4 mph - N/A   Clear
3:55 AM 42.4 °F 36.5 °F 27.3 °F 55% 30.18 in 10.0 mi West 10.4 mph - N/A   Clear
4:15 AM 40.8 °F 34.1 °F 27.0 °F 58% 30.18 in 10.0 mi WSW 11.5 mph - N/A   Clear
4:35 AM 42.4 °F 35.7 °F 27.3 °F 55% 30.18 in 10.0 mi WSW 12.7 mph - N/A   Clear
4:55 AM 41.5 °F 33.8 °F 27.3 °F 57% 30.17 in 10.0 mi WSW 15.0 mph - N/A   Clear
5:15 AM 41.4 °F 34.3 °F 27.5 °F 58% 30.16 in 10.0 mi SW 12.7 mph - N/A   Clear
5:35 AM 40.5 °F 33.6 °F 27.3 °F 59% 30.17 in 10.0 mi WSW 11.5 mph - N/A   Clear
5:55 AM 40.3 °F 33.0 °F 27.5 °F 60% 30.16 in 10.0 mi WSW 12.7 mph - N/A   Clear
6:15 AM 41.0 °F 35.2 °F 27.7 °F 59% 30.16 in 10.0 mi WSW 9.2 mph - N/A   Clear
6:35 AM 42.1 °F 34.5 °F 28.0 °F 58% 30.16 in 10.0 mi WSW 15.0 mph - N/A   Clear
6:55 AM 41.9 °F 36.9 °F 27.9 °F 58% 30.17 in 10.0 mi WSW 8.1 mph - N/A   Clear
7:15 AM 43.0 °F 36.4 °F 28.4 °F 56% 30.17 in 10.0 mi SW 12.7 mph - N/A   Clear
7:35 AM 42.4 °F 35.0 °F 28.8 °F 58% 30.18 in 10.0 mi SW 15.0 mph - N/A   Clear
7:55 AM 42.1 °F 33.1 °F 29.1 °F 60% 30.17 in 10.0 mi SW 20.7 mph 24.2 mph N/A   Clear
8:15 AM 44.6 °F 36.4 °F 28.6 °F 53% 30.17 in 10.0 mi SW 20.7 mph - N/A   Clear
8:35 AM 46.0 °F 38.0 °F 28.4 °F 50% 30.17 in 10.0 mi SW 21.9 mph - N/A   Clear
8:55 AM 47.3 °F - 28.4 °F 48% 30.17 in 10.0 mi SW 23.0 mph - N/A   Clear
9:15 AM 48.6 °F - 29.1 °F 47% 30.17 in 10.0 mi SW 23.0 mph 27.6 mph N/A   Clear
9:35 AM 49.6 °F - 29.3 °F 46% 30.18 in 10.0 mi SSW 18.4 mph 26.5 mph N/A   Clear
9:55 AM 52.5 °F - 30.2 °F 42% 30.19 in 10.0 mi SW 11.5 mph 19.6 mph N/A   Clear
10:15 AM 54.7 °F - 30.2 °F 39% 30.19 in 10.0 mi SW 11.5 mph 18.4 mph N/A   Clear
10:35 AM 54.0 °F - 30.9 °F 41% 30.18 in 10.0 mi SSW 17.3 mph 20.7 mph N/A   Clear
10:55 AM 55.6 °F - 30.9 °F 39% 30.17 in 10.0 mi SW 20.7 mph 24.2 mph N/A   Clear
11:15 AM 57.6 °F - 30.2 °F 35% 30.18 in 10.0 mi WSW 19.6 mph 27.6 mph N/A   Clear
11:35 AM 58.1 °F - 30.0 °F 34% 30.17 in 10.0 mi WSW 25.3 mph 31.1 mph N/A   Clear
11:55 AM 58.8 °F - 30.0 °F 34% 30.16 in 10.0 mi WSW 23.0 mph 31.1 mph N/A   Clear
12:15 PM 60.6 °F - 29.7 °F 31% 30.16 in 10.0 mi WSW 20.7 mph 31.1 mph N/A   Clear
12:35 PM 61.5 °F - 29.1 °F 29% 30.15 in 10.0 mi WSW 20.7 mph 27.6 mph N/A   Clear
12:55 PM 63.3 °F - 27.5 °F 26% 30.14 in 10.0 mi West 20.7 mph - N/A   Clear
1:15 PM 63.7 °F - 26.8 °F 25% 30.13 in 10.0 mi West 17.3 mph 26.5 mph N/A   Clear
1:35 PM 64.0 °F - 26.4 °F 24% 30.13 in 10.0 mi WSW 16.1 mph - N/A   Clear
1:55 PM 64.9 °F - 27.1 °F 24% 30.12 in 10.0 mi WSW 16.1 mph 21.9 mph N/A   Clear
2:15 PM 65.5 °F - 26.8 °F 23% 30.11 in 10.0 mi WSW 19.6 mph 26.5 mph N/A   Clear
2:35 PM 66.2 °F - 21.4 °F 18% 30.11 in 10.0 mi West 19.6 mph 25.3 mph N/A   Clear
2:55 PM 65.8 °F - 21.0 °F 18% 30.10 in 10.0 mi WSW 15.0 mph 21.9 mph N/A   Clear
3:15 PM 66.2 °F - 21.2 °F 18% 30.10 in 10.0 mi West 16.1 mph 23.0 mph N/A   Clear
3:35 PM 67.1 °F - 20.3 °F 17% 30.10 in 10.0 mi WSW 16.1 mph 21.9 mph N/A   Clear
3:55 PM 65.7 °F - 20.8 °F 18% 30.10 in 10.0 mi WSW 15.0 mph - N/A   Clear
4:15 PM 65.3 °F - 20.1 °F 18% 30.09 in 10.0 mi WSW 15.0 mph - N/A   Clear
4:35 PM 64.9 °F - 20.7 °F 18% 30.10 in 10.0 mi SW 16.1 mph - N/A   Clear
4:55 PM 64.0 °F - 21.0 °F 19% 30.11 in 10.0 mi WSW 11.5 mph 19.6 mph N/A   Clear
5:15 PM 63.1 °F - 21.9 °F 21% 30.11 in 10.0 mi WSW 11.5 mph - N/A   Clear
5:35 PM 60.8 °F - 22.6 °F 23% 30.12 in 10.0 mi WSW 11.5 mph - N/A   Clear
5:55 PM 58.1 °F - 23.0 °F 26% 30.13 in 10.0 mi WSW 10.4 mph - N/A   Clear
6:15 PM 56.3 °F - 23.7 °F 28% 30.14 in 10.0 mi WSW 10.4 mph - N/A   Clear
6:35 PM 54.3 °F - 23.9 °F 31% 30.14 in 10.0 mi WSW 9.2 mph - N/A   Clear
6:55 PM 54.7 °F - 24.3 °F 31% 30.16 in 10.0 mi WSW 9.2 mph - N/A   Clear
7:15 PM 53.6 °F - 24.8 °F 33% 30.17 in 10.0 mi WSW 9.2 mph - N/A   Clear
7:35 PM 52.9 °F - 25.0 °F 34% 30.18 in 10.0 mi West 6.9 mph - N/A   Clear
7:55 PM 51.1 °F - 25.2 °F 36% 30.19 in 10.0 mi South 3.5 mph - N/A   Clear
8:15 PM 50.7 °F - 24.8 °F 36% 30.19 in 10.0 mi Calm Calm - N/A   Clear
8:35 PM 55.2 °F - 22.6 °F 28% 30.20 in 10.0 mi Calm Calm - N/A   Clear
8:55 PM 52.0 °F - 23.2 °F 33% 30.21 in 10.0 mi Calm Calm - N/A   Clear
9:15 PM 51.1 °F - 22.6 °F 33% 30.22 in 10.0 mi Calm Calm - N/A   Clear
9:35 PM 42.3 °F 37.9 °F 24.6 °F 50% 30.23 in 10.0 mi SSE 6.9 mph - N/A   Clear
9:55 PM 41.4 °F 36.8 °F 24.6 °F 51% 30.24 in 10.0 mi SSE 6.9 mph - N/A   Clear
10:15 PM 43.7 °F - 24.6 °F 47% 30.24 in 10.0 mi Calm Calm - N/A   Clear
10:35 PM 41.0 °F 38.0 °F 23.7 °F 50% 30.25 in 10.0 mi South 4.6 mph - N/A   Clear
10:55 PM 35.2 °F 31.2 °F 23.4 °F 62% 30.26 in 10.0 mi SSW 4.6 mph - N/A   Clear
11:15 PM 37.8 °F 31.8 °F 23.5 °F 57% 30.30 in 10.0 mi NNE 8.1 mph - N/A   Clear
11:35 PM 41.7 °F 35.2 °F 24.8 °F 51% 30.31 in 10.0 mi NNE 11.5 mph - N/A   Clear
11:55 PM 43.0 °F 37.2 °F 25.3 °F 50% 30.32 in 10.0 mi NNE 10.4 mph 17.3 mph N/A   Clear